sensor_id;sensor_type;location;lat;lon;timestamp;P1;durP1;ratioP1;P2;durP2;ratioP2
25057;SDS011;13057;50.978;11.034;2023-03-13T00:01:39;17.73;;;2.90;;
25057;SDS011;13057;50.978;11.034;2023-03-13T00:04:08;17.20;;;2.60;;
25057;SDS011;13057;50.978;11.034;2023-03-13T00:06:35;13.63;;;2.67;;
25057;SDS011;13057;50.978;11.034;2023-03-13T00:09:03;15.30;;;3.08;;
25057;SDS011;13057;50.978;11.034;2023-03-13T00:11:32;12.35;;;2.33;;
25057;SDS011;13057;50.978;11.034;2023-03-13T00:14:00;11.32;;;2.15;;
25057;SDS011;13057;50.978;11.034;2023-03-13T00:16:28;17.63;;;2.88;;
25057;SDS011;13057;50.978;11.034;2023-03-13T00:18:56;11.90;;;2.83;;
25057;SDS011;13057;50.978;11.034;2023-03-13T00:21:25;13.73;;;2.72;;
25057;SDS011;13057;50.978;11.034;2023-03-13T00:23:53;9.73;;;2.50;;
25057;SDS011;13057;50.978;11.034;2023-03-13T00:26:22;12.65;;;2.58;;
25057;SDS011;13057;50.978;11.034;2023-03-13T00:28:51;10.10;;;2.60;;
25057;SDS011;13057;50.978;11.034;2023-03-13T00:31:20;9.85;;;2.22;;
25057;SDS011;13057;50.978;11.034;2023-03-13T00:33:49;13.02;;;2.38;;
25057;SDS011;13057;50.978;11.034;2023-03-13T00:36:19;20.58;;;3.17;;
25057;SDS011;13057;50.978;11.034;2023-03-13T00:38:49;13.30;;;2.67;;
25057;SDS011;13057;50.978;11.034;2023-03-13T00:41:19;14.52;;;2.70;;
25057;SDS011;13057;50.978;11.034;2023-03-13T00:43:48;12.35;;;3.00;;
25057;SDS011;13057;50.978;11.034;2023-03-13T00:46:16;16.08;;;2.80;;
25057;SDS011;13057;50.978;11.034;2023-03-13T00:48:45;14.63;;;2.88;;
25057;SDS011;13057;50.978;11.034;2023-03-13T00:51:14;10.05;;;2.72;;
25057;SDS011;13057;50.978;11.034;2023-03-13T00:53:43;13.13;;;2.33;;
25057;SDS011;13057;50.978;11.034;2023-03-13T00:56:11;11.70;;;2.58;;
25057;SDS011;13057;50.978;11.034;2023-03-13T00:58:40;12.10;;;2.30;;
25057;SDS011;13057;50.978;11.034;2023-03-13T01:01:10;14.80;;;3.05;;
25057;SDS011;13057;50.978;11.034;2023-03-13T01:03:43;11.82;;;2.35;;
25057;SDS011;13057;50.978;11.034;2023-03-13T01:06:18;16.98;;;3.08;;
25057;SDS011;13057;50.978;11.034;2023-03-13T01:08:47;16.88;;;2.85;;
25057;SDS011;13057;50.978;11.034;2023-03-13T01:11:16;14.52;;;2.10;;
25057;SDS011;13057;50.978;11.034;2023-03-13T01:13:45;11.52;;;2.70;;
25057;SDS011;13057;50.978;11.034;2023-03-13T01:16:14;13.38;;;2.65;;
25057;SDS011;13057;50.978;11.034;2023-03-13T01:18:43;18.35;;;2.63;;
25057;SDS011;13057;50.978;11.034;2023-03-13T01:21:13;12.45;;;2.72;;
25057;SDS011;13057;50.978;11.034;2023-03-13T01:23:41;9.02;;;2.22;;
25057;SDS011;13057;50.978;11.034;2023-03-13T01:26:08;10.23;;;2.00;;
25057;SDS011;13057;50.978;11.034;2023-03-13T01:28:35;12.05;;;2.58;;
25057;SDS011;13057;50.978;11.034;2023-03-13T01:31:09;12.82;;;2.47;;
25057;SDS011;13057;50.978;11.034;2023-03-13T01:33:44;11.55;;;2.17;;
25057;SDS011;13057;50.978;11.034;2023-03-13T01:36:12;11.68;;;2.05;;
25057;SDS011;13057;50.978;11.034;2023-03-13T01:38:39;11.23;;;2.28;;
25057;SDS011;13057;50.978;11.034;2023-03-13T01:41:07;9.13;;;2.00;;
25057;SDS011;13057;50.978;11.034;2023-03-13T01:43:36;13.43;;;2.15;;
25057;SDS011;13057;50.978;11.034;2023-03-13T01:46:12;10.23;;;2.03;;
25057;SDS011;13057;50.978;11.034;2023-03-13T01:48:44;14.05;;;2.47;;
25057;SDS011;13057;50.978;11.034;2023-03-13T01:51:20;10.00;;;2.40;;
25057;SDS011;13057;50.978;11.034;2023-03-13T01:53:54;14.23;;;2.53;;
25057;SDS011;13057;50.978;11.034;2023-03-13T01:56:27;12.15;;;2.58;;
25057;SDS011;13057;50.978;11.034;2023-03-13T01:58:59;8.73;;;2.45;;
25057;SDS011;13057;50.978;11.034;2023-03-13T02:01:27;11.48;;;2.60;;
25057;SDS011;13057;50.978;11.034;2023-03-13T02:03:55;11.60;;;2.40;;
25057;SDS011;13057;50.978;11.034;2023-03-13T02:06:23;13.05;;;2.22;;
25057;SDS011;13057;50.978;11.034;2023-03-13T02:08:53;14.20;;;2.70;;
25057;SDS011;13057;50.978;11.034;2023-03-13T02:11:26;11.63;;;2.65;;
25057;SDS011;13057;50.978;11.034;2023-03-13T02:14:03;14.50;;;2.20;;
25057;SDS011;13057;50.978;11.034;2023-03-13T02:16:31;8.48;;;2.17;;
25057;SDS011;13057;50.978;11.034;2023-03-13T02:18:59;12.07;;;2.70;;
25057;SDS011;13057;50.978;11.034;2023-03-13T02:21:36;15.30;;;3.03;;
25057;SDS011;13057;50.978;11.034;2023-03-13T02:24:14;10.32;;;2.45;;
25057;SDS011;13057;50.978;11.034;2023-03-13T02:26:51;11.63;;;2.72;;
25057;SDS011;13057;50.978;11.034;2023-03-13T02:29:18;9.85;;;2.08;;
25057;SDS011;13057;50.978;11.034;2023-03-13T02:31:46;14.98;;;3.03;;
25057;SDS011;13057;50.978;11.034;2023-03-13T02:34:14;15.90;;;2.90;;
25057;SDS011;13057;50.978;11.034;2023-03-13T02:36:49;10.73;;;2.65;;
25057;SDS011;13057;50.978;11.034;2023-03-13T02:39:17;11.07;;;2.90;;
25057;SDS011;13057;50.978;11.034;2023-03-13T02:41:46;12.82;;;2.50;;
25057;SDS011;13057;50.978;11.034;2023-03-13T02:44:14;11.50;;;2.65;;
25057;SDS011;13057;50.978;11.034;2023-03-13T02:46:45;15.00;;;2.65;;
25057;SDS011;13057;50.978;11.034;2023-03-13T02:49:19;11.73;;;2.40;;
25057;SDS011;13057;50.978;11.034;2023-03-13T02:51:53;10.45;;;2.53;;
25057;SDS011;13057;50.978;11.034;2023-03-13T02:54:25;10.65;;;2.92;;
25057;SDS011;13057;50.978;11.034;2023-03-13T02:56:56;10.93;;;2.25;;
25057;SDS011;13057;50.978;11.034;2023-03-13T02:59:26;14.13;;;2.50;;
25057;SDS011;13057;50.978;11.034;2023-03-13T03:01:53;9.13;;;2.55;;
25057;SDS011;13057;50.978;11.034;2023-03-13T03:04:21;11.10;;;2.53;;
25057;SDS011;13057;50.978;11.034;2023-03-13T03:06:49;9.35;;;2.20;;
25057;SDS011;13057;50.978;11.034;2023-03-13T03:09:17;13.88;;;2.80;;
25057;SDS011;13057;50.978;11.034;2023-03-13T03:11:45;8.82;;;2.55;;
25057;SDS011;13057;50.978;11.034;2023-03-13T03:14:12;12.25;;;2.35;;
25057;SDS011;13057;50.978;11.034;2023-03-13T03:16:39;8.55;;;2.53;;
25057;SDS011;13057;50.978;11.034;2023-03-13T03:19:06;9.98;;;2.65;;
25057;SDS011;13057;50.978;11.034;2023-03-13T03:21:34;13.57;;;3.45;;
25057;SDS011;13057;50.978;11.034;2023-03-13T03:24:00;10.70;;;2.50;;
25057;SDS011;13057;50.978;11.034;2023-03-13T03:26:28;12.23;;;2.25;;
25057;SDS011;13057;50.978;11.034;2023-03-13T03:28:55;10.60;;;2.47;;
25057;SDS011;13057;50.978;11.034;2023-03-13T03:31:22;13.77;;;2.30;;
25057;SDS011;13057;50.978;11.034;2023-03-13T03:33:49;15.30;;;2.78;;
25057;SDS011;13057;50.978;11.034;2023-03-13T03:36:17;11.45;;;2.45;;
25057;SDS011;13057;50.978;11.034;2023-03-13T03:38:46;7.60;;;2.15;;
25057;SDS011;13057;50.978;11.034;2023-03-13T03:41:13;9.93;;;2.33;;
25057;SDS011;13057;50.978;11.034;2023-03-13T03:43:41;10.10;;;2.20;;
25057;SDS011;13057;50.978;11.034;2023-03-13T03:46:08;12.60;;;2.78;;
25057;SDS011;13057;50.978;11.034;2023-03-13T03:48:35;10.98;;;2.20;;
25057;SDS011;13057;50.978;11.034;2023-03-13T03:51:03;9.15;;;2.45;;
25057;SDS011;13057;50.978;11.034;2023-03-13T03:53:30;13.60;;;2.10;;
25057;SDS011;13057;50.978;11.034;2023-03-13T03:55:58;9.13;;;2.50;;
25057;SDS011;13057;50.978;11.034;2023-03-13T03:58:25;10.82;;;2.38;;
25057;SDS011;13057;50.978;11.034;2023-03-13T04:00:52;5.63;;;2.10;;
25057;SDS011;13057;50.978;11.034;2023-03-13T04:03:19;10.13;;;2.63;;
25057;SDS011;13057;50.978;11.034;2023-03-13T04:05:47;11.50;;;2.45;;
25057;SDS011;13057;50.978;11.034;2023-03-13T04:08:15;11.38;;;2.63;;
25057;SDS011;13057;50.978;11.034;2023-03-13T04:10:42;8.73;;;2.13;;
25057;SDS011;13057;50.978;11.034;2023-03-13T04:13:09;10.88;;;2.50;;
25057;SDS011;13057;50.978;11.034;2023-03-13T04:15:37;11.60;;;2.50;;
25057;SDS011;13057;50.978;11.034;2023-03-13T04:18:04;9.73;;;2.08;;
25057;SDS011;13057;50.978;11.034;2023-03-13T04:20:31;11.07;;;2.47;;
25057;SDS011;13057;50.978;11.034;2023-03-13T04:22:58;11.25;;;1.90;;
25057;SDS011;13057;50.978;11.034;2023-03-13T04:25:25;11.23;;;2.33;;
25057;SDS011;13057;50.978;11.034;2023-03-13T04:27:52;9.60;;;2.42;;
25057;SDS011;13057;50.978;11.034;2023-03-13T04:30:19;7.85;;;2.05;;
25057;SDS011;13057;50.978;11.034;2023-03-13T04:32:46;8.40;;;2.55;;
25057;SDS011;13057;50.978;11.034;2023-03-13T04:35:12;11.38;;;2.47;;
25057;SDS011;13057;50.978;11.034;2023-03-13T04:37:39;9.35;;;1.80;;
25057;SDS011;13057;50.978;11.034;2023-03-13T04:40:06;9.75;;;2.05;;
25057;SDS011;13057;50.978;11.034;2023-03-13T04:42:34;12.43;;;2.17;;
25057;SDS011;13057;50.978;11.034;2023-03-13T04:45:01;9.55;;;2.10;;
25057;SDS011;13057;50.978;11.034;2023-03-13T04:47:27;12.15;;;2.45;;
25057;SDS011;13057;50.978;11.034;2023-03-13T04:49:54;8.15;;;1.85;;
25057;SDS011;13057;50.978;11.034;2023-03-13T04:52:21;13.00;;;2.25;;
25057;SDS011;13057;50.978;11.034;2023-03-13T04:54:48;8.02;;;2.08;;
25057;SDS011;13057;50.978;11.034;2023-03-13T04:57:16;11.20;;;2.42;;
25057;SDS011;13057;50.978;11.034;2023-03-13T04:59:42;7.30;;;2.25;;
25057;SDS011;13057;50.978;11.034;2023-03-13T05:02:11;7.57;;;2.13;;
25057;SDS011;13057;50.978;11.034;2023-03-13T05:04:38;13.50;;;2.63;;
25057;SDS011;13057;50.978;11.034;2023-03-13T05:07:05;7.60;;;1.85;;
25057;SDS011;13057;50.978;11.034;2023-03-13T05:09:32;10.68;;;2.63;;
25057;SDS011;13057;50.978;11.034;2023-03-13T05:11:58;8.05;;;2.17;;
25057;SDS011;13057;50.978;11.034;2023-03-13T05:14:25;6.00;;;1.95;;
25057;SDS011;13057;50.978;11.034;2023-03-13T05:16:52;7.03;;;1.98;;
25057;SDS011;13057;50.978;11.034;2023-03-13T05:19:19;8.02;;;2.08;;
25057;SDS011;13057;50.978;11.034;2023-03-13T05:21:46;7.97;;;2.00;;
25057;SDS011;13057;50.978;11.034;2023-03-13T05:24:12;6.28;;;1.98;;
25057;SDS011;13057;50.978;11.034;2023-03-13T05:26:39;6.05;;;1.83;;
25057;SDS011;13057;50.978;11.034;2023-03-13T05:29:06;7.25;;;2.25;;
25057;SDS011;13057;50.978;11.034;2023-03-13T05:31:33;6.00;;;1.70;;
25057;SDS011;13057;50.978;11.034;2023-03-13T05:33:59;10.23;;;2.38;;
25057;SDS011;13057;50.978;11.034;2023-03-13T05:36:26;7.88;;;1.98;;
25057;SDS011;13057;50.978;11.034;2023-03-13T05:38:53;6.28;;;1.60;;
25057;SDS011;13057;50.978;11.034;2023-03-13T05:41:20;5.75;;;1.58;;
25057;SDS011;13057;50.978;11.034;2023-03-13T05:43:47;8.25;;;1.85;;
25057;SDS011;13057;50.978;11.034;2023-03-13T05:46:13;5.10;;;1.80;;
25057;SDS011;13057;50.978;11.034;2023-03-13T05:48:40;3.78;;;1.58;;
25057;SDS011;13057;50.978;11.034;2023-03-13T05:51:11;5.85;;;1.55;;
25057;SDS011;13057;50.978;11.034;2023-03-13T05:53:39;3.13;;;1.20;;
25057;SDS011;13057;50.978;11.034;2023-03-13T05:56:06;4.60;;;1.45;;
25057;SDS011;13057;50.978;11.034;2023-03-13T05:58:32;6.50;;;1.52;;
25057;SDS011;13057;50.978;11.034;2023-03-13T06:01:04;3.53;;;1.35;;
25057;SDS011;13057;50.978;11.034;2023-03-13T06:03:33;3.35;;;1.33;;
25057;SDS011;13057;50.978;11.034;2023-03-13T06:06:00;5.38;;;1.30;;
25057;SDS011;13057;50.978;11.034;2023-03-13T06:08:27;3.13;;;1.10;;
25057;SDS011;13057;50.978;11.034;2023-03-13T06:10:54;4.55;;;1.15;;
25057;SDS011;13057;50.978;11.034;2023-03-13T06:13:24;2.50;;;0.90;;
25057;SDS011;13057;50.978;11.034;2023-03-13T06:15:52;3.50;;;1.35;;
25057;SDS011;13057;50.978;11.034;2023-03-13T06:18:20;4.20;;;1.17;;
25057;SDS011;13057;50.978;11.034;2023-03-13T06:20:48;2.97;;;0.93;;
25057;SDS011;13057;50.978;11.034;2023-03-13T06:23:15;4.45;;;1.13;;
25057;SDS011;13057;50.978;11.034;2023-03-13T06:25:45;4.07;;;0.85;;
25057;SDS011;13057;50.978;11.034;2023-03-13T06:28:13;2.78;;;0.90;;
25057;SDS011;13057;50.978;11.034;2023-03-13T06:30:41;2.08;;;0.80;;
25057;SDS011;13057;50.978;11.034;2023-03-13T06:33:08;7.90;;;3.47;;
25057;SDS011;13057;50.978;11.034;2023-03-13T06:35:35;4.20;;;1.02;;
25057;SDS011;13057;50.978;11.034;2023-03-13T06:38:06;3.22;;;0.70;;
25057;SDS011;13057;50.978;11.034;2023-03-13T06:40:33;3.47;;;0.85;;
25057;SDS011;13057;50.978;11.034;2023-03-13T06:43:00;3.83;;;0.80;;
25057;SDS011;13057;50.978;11.034;2023-03-13T06:45:29;1.88;;;0.82;;
25057;SDS011;13057;50.978;11.034;2023-03-13T06:47:56;1.70;;;0.60;;
25057;SDS011;13057;50.978;11.034;2023-03-13T06:50:22;2.25;;;0.73;;
25057;SDS011;13057;50.978;11.034;2023-03-13T06:52:49;4.05;;;0.90;;
25057;SDS011;13057;50.978;11.034;2023-03-13T06:55:16;2.83;;;1.17;;
25057;SDS011;13057;50.978;11.034;2023-03-13T06:57:43;2.38;;;1.10;;
25057;SDS011;13057;50.978;11.034;2023-03-13T07:00:10;4.15;;;1.30;;
25057;SDS011;13057;50.978;11.034;2023-03-13T07:02:37;2.85;;;1.13;;
25057;SDS011;13057;50.978;11.034;2023-03-13T07:05:04;2.17;;;1.02;;
25057;SDS011;13057;50.978;11.034;2023-03-13T07:07:32;3.10;;;0.80;;
25057;SDS011;13057;50.978;11.034;2023-03-13T07:10:00;1.15;;;0.70;;
25057;SDS011;13057;50.978;11.034;2023-03-13T07:12:27;1.70;;;0.60;;
25057;SDS011;13057;50.978;11.034;2023-03-13T07:14:54;4.00;;;0.85;;
25057;SDS011;13057;50.978;11.034;2023-03-13T07:17:21;1.63;;;0.90;;
25057;SDS011;13057;50.978;11.034;2023-03-13T07:19:47;3.65;;;0.82;;
25057;SDS011;13057;50.978;11.034;2023-03-13T07:22:14;2.28;;;0.80;;
25057;SDS011;13057;50.978;11.034;2023-03-13T07:24:41;3.22;;;0.82;;
25057;SDS011;13057;50.978;11.034;2023-03-13T07:27:08;2.00;;;0.70;;
25057;SDS011;13057;50.978;11.034;2023-03-13T07:29:35;1.95;;;0.82;;
25057;SDS011;13057;50.978;11.034;2023-03-13T07:32:02;3.55;;;1.20;;
25057;SDS011;13057;50.978;11.034;2023-03-13T07:34:28;3.20;;;0.70;;
25057;SDS011;13057;50.978;11.034;2023-03-13T07:36:55;2.35;;;0.60;;
25057;SDS011;13057;50.978;11.034;2023-03-13T07:39:21;1.77;;;0.50;;
25057;SDS011;13057;50.978;11.034;2023-03-13T07:41:48;1.88;;;0.68;;
25057;SDS011;13057;50.978;11.034;2023-03-13T07:44:15;2.03;;;0.80;;
25057;SDS011;13057;50.978;11.034;2023-03-13T07:46:42;2.50;;;0.68;;
25057;SDS011;13057;50.978;11.034;2023-03-13T07:49:09;2.00;;;0.50;;
25057;SDS011;13057;50.978;11.034;2023-03-13T07:51:35;22.40;;;14.40;;
25057;SDS011;13057;50.978;11.034;2023-03-13T07:54:02;2.20;;;0.65;;
25057;SDS011;13057;50.978;11.034;2023-03-13T07:56:30;1.50;;;0.60;;
25057;SDS011;13057;50.978;11.034;2023-03-13T07:58:56;3.95;;;1.85;;
25057;SDS011;13057;50.978;11.034;2023-03-13T08:01:24;4.53;;;1.08;;
25057;SDS011;13057;50.978;11.034;2023-03-13T08:06:24;2.58;;;0.90;;
25057;SDS011;13057;50.978;11.034;2023-03-13T08:08:51;1.35;;;0.70;;
25057;SDS011;13057;50.978;11.034;2023-03-13T08:11:22;2.15;;;0.68;;
25057;SDS011;13057;50.978;11.034;2023-03-13T08:13:51;0.77;;;0.47;;
25057;SDS011;13057;50.978;11.034;2023-03-13T08:16:20;1.13;;;0.77;;
25057;SDS011;13057;50.978;11.034;2023-03-13T08:18:51;1.50;;;0.88;;
25057;SDS011;13057;50.978;11.034;2023-03-13T08:21:21;1.40;;;0.70;;
25057;SDS011;13057;50.978;11.034;2023-03-13T08:23:51;0.77;;;0.70;;
25057;SDS011;13057;50.978;11.034;2023-03-13T08:26:27;1.23;;;0.70;;
25057;SDS011;13057;50.978;11.034;2023-03-13T08:28:56;2.03;;;0.80;;
25057;SDS011;13057;50.978;11.034;2023-03-13T08:31:27;1.08;;;0.80;;
25057;SDS011;13057;50.978;11.034;2023-03-13T08:33:56;1.02;;;0.50;;
25057;SDS011;13057;50.978;11.034;2023-03-13T08:36:24;1.05;;;0.70;;
25057;SDS011;13057;50.978;11.034;2023-03-13T08:38:56;1.50;;;0.65;;
25057;SDS011;13057;50.978;11.034;2023-03-13T08:41:25;1.85;;;0.57;;
25057;SDS011;13057;50.978;11.034;2023-03-13T08:43:59;1.70;;;0.77;;
25057;SDS011;13057;50.978;11.034;2023-03-13T08:46:28;2.15;;;1.10;;
25057;SDS011;13057;50.978;11.034;2023-03-13T08:48:56;0.90;;;0.40;;
25057;SDS011;13057;50.978;11.034;2023-03-13T08:51:25;2.60;;;0.70;;
25057;SDS011;13057;50.978;11.034;2023-03-13T08:53:54;4.82;;;1.10;;
25057;SDS011;13057;50.978;11.034;2023-03-13T08:56:28;2.83;;;0.85;;
25057;SDS011;13057;50.978;11.034;2023-03-13T08:58:55;0.80;;;0.50;;
25057;SDS011;13057;50.978;11.034;2023-03-13T09:01:25;3.15;;;1.10;;
25057;SDS011;13057;50.978;11.034;2023-03-13T09:03:55;3.70;;;0.90;;
25057;SDS011;13057;50.978;11.034;2023-03-13T09:06:22;1.10;;;0.70;;
25057;SDS011;13057;50.978;11.034;2023-03-13T09:08:49;2.40;;;1.05;;
25057;SDS011;13057;50.978;11.034;2023-03-13T09:11:16;0.77;;;0.73;;
25057;SDS011;13057;50.978;11.034;2023-03-13T09:13:46;1.30;;;0.50;;
25057;SDS011;13057;50.978;11.034;2023-03-13T09:16:16;1.02;;;0.60;;
25057;SDS011;13057;50.978;11.034;2023-03-13T09:18:45;1.80;;;1.08;;
25057;SDS011;13057;50.978;11.034;2023-03-13T09:21:15;1.73;;;0.90;;
25057;SDS011;13057;50.978;11.034;2023-03-13T09:23:44;0.77;;;0.57;;
25057;SDS011;13057;50.978;11.034;2023-03-13T09:26:11;2.55;;;0.60;;
25057;SDS011;13057;50.978;11.034;2023-03-13T09:28:39;5.80;;;0.70;;
25057;SDS011;13057;50.978;11.034;2023-03-13T09:31:08;2.22;;;1.27;;
25057;SDS011;13057;50.978;11.034;2023-03-13T09:33:36;0.80;;;0.50;;
25057;SDS011;13057;50.978;11.034;2023-03-13T09:36:04;1.02;;;0.40;;
25057;SDS011;13057;50.978;11.034;2023-03-13T09:38:32;3.90;;;0.95;;
25057;SDS011;13057;50.978;11.034;2023-03-13T09:41:04;2.70;;;0.50;;
25057;SDS011;13057;50.978;11.034;2023-03-13T09:43:54;1.20;;;0.70;;
25057;SDS011;13057;50.978;11.034;2023-03-13T09:46:30;1.15;;;0.60;;
25057;SDS011;13057;50.978;11.034;2023-03-13T09:49:11;2.42;;;0.85;;
25057;SDS011;13057;50.978;11.034;2023-03-13T09:51:42;1.70;;;0.80;;
25057;SDS011;13057;50.978;11.034;2023-03-13T09:54:18;1.23;;;0.90;;
25057;SDS011;13057;50.978;11.034;2023-03-13T09:56:56;0.98;;;0.75;;
25057;SDS011;13057;50.978;11.034;2023-03-13T09:59:27;4.18;;;0.93;;
25057;SDS011;13057;50.978;11.034;2023-03-13T10:02:15;1.00;;;0.75;;
25057;SDS011;13057;50.978;11.034;2023-03-13T10:05:07;3.38;;;0.90;;
25057;SDS011;13057;50.978;11.034;2023-03-13T10:07:42;2.28;;;1.20;;
25057;SDS011;13057;50.978;11.034;2023-03-13T10:10:16;1.38;;;0.90;;
25057;SDS011;13057;50.978;11.034;2023-03-13T10:12:52;1.88;;;0.80;;
25057;SDS011;13057;50.978;11.034;2023-03-13T10:15:35;2.33;;;1.17;;
25057;SDS011;13057;50.978;11.034;2023-03-13T10:18:11;1.48;;;1.17;;
25057;SDS011;13057;50.978;11.034;2023-03-13T10:23:17;1.63;;;0.85;;
25057;SDS011;13057;50.978;11.034;2023-03-13T10:25:54;3.03;;;1.48;;
25057;SDS011;13057;50.978;11.034;2023-03-13T10:28:24;1.42;;;1.10;;
25057;SDS011;13057;50.978;11.034;2023-03-13T10:30:57;4.45;;;1.30;;
25057;SDS011;13057;50.978;11.034;2023-03-13T10:33:30;1.15;;;0.63;;
25057;SDS011;13057;50.978;11.034;2023-03-13T10:36:05;2.75;;;1.50;;
25057;SDS011;13057;50.978;11.034;2023-03-13T10:38:44;2.95;;;1.23;;
25057;SDS011;13057;50.978;11.034;2023-03-13T10:41:24;3.38;;;1.30;;
25057;SDS011;13057;50.978;11.034;2023-03-13T10:44:02;2.05;;;1.13;;
25057;SDS011;13057;50.978;11.034;2023-03-13T10:46:32;4.63;;;0.90;;
25057;SDS011;13057;50.978;11.034;2023-03-13T10:49:10;4.70;;;1.27;;
25057;SDS011;13057;50.978;11.034;2023-03-13T10:51:54;2.70;;;1.10;;
25057;SDS011;13057;50.978;11.034;2023-03-13T10:54:26;1.48;;;1.10;;
25057;SDS011;13057;50.978;11.034;2023-03-13T10:59:53;2.00;;;0.98;;
25057;SDS011;13057;50.978;11.034;2023-03-13T11:02:22;5.80;;;2.00;;
25057;SDS011;13057;50.978;11.034;2023-03-13T11:04:58;2.35;;;1.40;;
25057;SDS011;13057;50.978;11.034;2023-03-13T11:07:26;3.08;;;0.90;;
25057;SDS011;13057;50.978;11.034;2023-03-13T11:09:57;1.45;;;0.70;;
25057;SDS011;13057;50.978;11.034;2023-03-13T11:12:26;3.55;;;1.00;;
25057;SDS011;13057;50.978;11.034;2023-03-13T11:14:58;3.83;;;0.90;;
25057;SDS011;13057;50.978;11.034;2023-03-13T11:20:04;0.80;;;0.60;;
25057;SDS011;13057;50.978;11.034;2023-03-13T11:22:48;2.05;;;0.95;;
25057;SDS011;13057;50.978;11.034;2023-03-13T11:25:26;4.88;;;1.63;;
25057;SDS011;13057;50.978;11.034;2023-03-13T11:31:01;3.10;;;1.02;;
25057;SDS011;13057;50.978;11.034;2023-03-13T11:33:39;2.17;;;1.00;;
25057;SDS011;13057;50.978;11.034;2023-03-13T11:36:25;2.65;;;1.08;;
25057;SDS011;13057;50.978;11.034;2023-03-13T11:39:12;2.50;;;0.90;;
25057;SDS011;13057;50.978;11.034;2023-03-13T11:42:29;1.70;;;1.00;;
25057;SDS011;13057;50.978;11.034;2023-03-13T11:45:11;2.35;;;1.00;;
25057;SDS011;13057;50.978;11.034;2023-03-13T11:48:07;3.42;;;1.13;;
25057;SDS011;13057;50.978;11.034;2023-03-13T11:50:50;1.80;;;1.00;;
25057;SDS011;13057;50.978;11.034;2023-03-13T11:53:28;3.30;;;1.60;;
25057;SDS011;13057;50.978;11.034;2023-03-13T11:56:19;2.72;;;1.30;;
25057;SDS011;13057;50.978;11.034;2023-03-13T11:58:59;11.10;;;5.57;;
25057;SDS011;13057;50.978;11.034;2023-03-13T12:01:50;3.42;;;1.17;;
25057;SDS011;13057;50.978;11.034;2023-03-13T12:04:22;3.58;;;1.70;;
25057;SDS011;13057;50.978;11.034;2023-03-13T12:06:55;5.35;;;3.22;;
25057;SDS011;13057;50.978;11.034;2023-03-13T12:09:45;1.02;;;0.90;;
25057;SDS011;13057;50.978;11.034;2023-03-13T12:12:26;2.90;;;1.23;;
25057;SDS011;13057;50.978;11.034;2023-03-13T12:15:19;3.47;;;2.28;;
25057;SDS011;13057;50.978;11.034;2023-03-13T12:17:52;2.17;;;1.02;;
25057;SDS011;13057;50.978;11.034;2023-03-13T12:20:32;2.47;;;1.05;;
25057;SDS011;13057;50.978;11.034;2023-03-13T12:23:17;1.80;;;1.42;;
25057;SDS011;13057;50.978;11.034;2023-03-13T12:25:47;4.25;;;1.75;;
25057;SDS011;13057;50.978;11.034;2023-03-13T12:28:24;1.40;;;1.02;;
25057;SDS011;13057;50.978;11.034;2023-03-13T12:30:59;5.10;;;0.93;;
25057;SDS011;13057;50.978;11.034;2023-03-13T12:33:35;2.65;;;1.23;;
25057;SDS011;13057;50.978;11.034;2023-03-13T12:36:11;2.72;;;1.30;;
25057;SDS011;13057;50.978;11.034;2023-03-13T12:39:00;2.27;;;1.57;;
25057;SDS011;13057;50.978;11.034;2023-03-13T12:41:59;2.03;;;1.60;;
25057;SDS011;13057;50.978;11.034;2023-03-13T12:44:38;3.33;;;1.08;;
25057;SDS011;13057;50.978;11.034;2023-03-13T12:47:07;1.70;;;1.05;;
25057;SDS011;13057;50.978;11.034;2023-03-13T12:49:49;3.55;;;1.00;;
25057;SDS011;13057;50.978;11.034;2023-03-13T12:52:33;3.90;;;1.10;;
25057;SDS011;13057;50.978;11.034;2023-03-13T12:55:20;2.17;;;1.05;;
25057;SDS011;13057;50.978;11.034;2023-03-13T12:58:10;3.05;;;2.05;;
25057;SDS011;13057;50.978;11.034;2023-03-13T13:00:49;2.35;;;0.80;;
25057;SDS011;13057;50.978;11.034;2023-03-13T13:03:30;1.98;;;1.20;;
25057;SDS011;13057;50.978;11.034;2023-03-13T13:06:05;1.65;;;1.10;;
25057;SDS011;13057;50.978;11.034;2023-03-13T13:08:40;1.90;;;1.20;;
25057;SDS011;13057;50.978;11.034;2023-03-13T13:11:33;2.20;;;1.40;;
25057;SDS011;13057;50.978;11.034;2023-03-13T13:17:29;1.73;;;1.27;;
25057;SDS011;13057;50.978;11.034;2023-03-13T13:22:52;16.88;;;13.02;;
25057;SDS011;13057;50.978;11.034;2023-03-13T13:25:28;3.95;;;1.17;;
25057;SDS011;13057;50.978;11.034;2023-03-13T13:30:58;3.22;;;1.27;;
25057;SDS011;13057;50.978;11.034;2023-03-13T13:33:33;1.48;;;0.90;;
25057;SDS011;13057;50.978;11.034;2023-03-13T13:38:53;5.97;;;2.88;;
25057;SDS011;13057;50.978;11.034;2023-03-13T13:41:21;3.50;;;2.10;;
25057;SDS011;13057;50.978;11.034;2023-03-13T13:46:45;14.90;;;7.63;;
25057;SDS011;13057;50.978;11.034;2023-03-13T13:49:13;2.53;;;1.77;;
25057;SDS011;13057;50.978;11.034;2023-03-13T13:57:26;2.60;;;1.23;;
25057;SDS011;13057;50.978;11.034;2023-03-13T14:00:15;2.20;;;1.30;;
25057;SDS011;13057;50.978;11.034;2023-03-13T14:02:51;3.67;;;1.40;;
25057;SDS011;13057;50.978;11.034;2023-03-13T14:05:21;2.28;;;1.15;;
25057;SDS011;13057;50.978;11.034;2023-03-13T14:07:56;2.75;;;1.10;;
25057;SDS011;13057;50.978;11.034;2023-03-13T14:10:36;6.33;;;1.57;;
25057;SDS011;13057;50.978;11.034;2023-03-13T14:13:14;1.58;;;1.25;;
25057;SDS011;13057;50.978;11.034;2023-03-13T14:15:43;4.93;;;1.40;;
25057;SDS011;13057;50.978;11.034;2023-03-13T14:18:18;3.05;;;1.83;;
25057;SDS011;13057;50.978;11.034;2023-03-13T14:20:52;3.63;;;1.80;;
25057;SDS011;13057;50.978;11.034;2023-03-13T14:23:29;2.13;;;1.30;;
25057;SDS011;13057;50.978;11.034;2023-03-13T14:26:08;5.00;;;1.77;;
25057;SDS011;13057;50.978;11.034;2023-03-13T14:28:44;3.63;;;1.92;;
25057;SDS011;13057;50.978;11.034;2023-03-13T14:31:21;2.25;;;1.10;;
25057;SDS011;13057;50.978;11.034;2023-03-13T14:33:53;6.60;;;4.30;;
25057;SDS011;13057;50.978;11.034;2023-03-13T14:36:22;3.05;;;1.55;;
25057;SDS011;13057;50.978;11.034;2023-03-13T14:38:50;4.43;;;1.20;;
25057;SDS011;13057;50.978;11.034;2023-03-13T14:41:21;2.67;;;1.77;;
25057;SDS011;13057;50.978;11.034;2023-03-13T14:43:54;2.95;;;1.83;;
25057;SDS011;13057;50.978;11.034;2023-03-13T14:46:29;3.75;;;1.80;;
25057;SDS011;13057;50.978;11.034;2023-03-13T14:49:06;2.65;;;1.30;;
25057;SDS011;13057;50.978;11.034;2023-03-13T14:51:41;7.63;;;2.30;;
25057;SDS011;13057;50.978;11.034;2023-03-13T14:54:26;3.50;;;1.27;;
25057;SDS011;13057;50.978;11.034;2023-03-13T14:57:03;1.63;;;1.10;;
25057;SDS011;13057;50.978;11.034;2023-03-13T14:59:39;11.38;;;5.90;;
25057;SDS011;13057;50.978;11.034;2023-03-13T15:02:18;4.80;;;2.08;;
25057;SDS011;13057;50.978;11.034;2023-03-13T15:04:53;3.95;;;0.95;;
25057;SDS011;13057;50.978;11.034;2023-03-13T15:07:35;16.77;;;8.98;;
25057;SDS011;13057;50.978;11.034;2023-03-13T15:10:17;10.52;;;4.78;;
25057;SDS011;13057;50.978;11.034;2023-03-13T15:12:50;3.90;;;1.92;;
25057;SDS011;13057;50.978;11.034;2023-03-13T15:15:39;2.92;;;1.60;;
25057;SDS011;13057;50.978;11.034;2023-03-13T15:18:12;2.75;;;1.50;;
25057;SDS011;13057;50.978;11.034;2023-03-13T15:20:49;2.65;;;1.52;;
25057;SDS011;13057;50.978;11.034;2023-03-13T15:23:20;4.93;;;2.20;;
25057;SDS011;13057;50.978;11.034;2023-03-13T15:25:47;2.70;;;1.27;;
25057;SDS011;13057;50.978;11.034;2023-03-13T15:28:17;7.18;;;2.92;;
25057;SDS011;13057;50.978;11.034;2023-03-13T15:30:46;8.15;;;3.35;;